Terminal Aerodrome Forecast
Issued by NWS

Home | Current Version | Previous Version | Text Only | Print | Product List | Glossary On
Versions: 1 2 3 4 5 6 7 8 9 10 11 12
000
FTUS46 KHNX 311744
TAFFAT
TAF
KFAT 311744Z 3118/0118 VRB04KT P6SM FEW120 BKN200
     FM312300 29005KT P6SM SCT090 BKN120
     FM010100 29006KT P6SM SCT035 BKN050 OVC100
      TEMPO 0101/0103 -RA BKN035
     FM010300 16010KT 4SM -RA SCT030 OVC060
      TEMPO 0104/0108 2SM TSRA BKN030CB
     FM010800 12007KT 4SM -RA BR OVC050
      TEMPO 0108/0112 1 1/2SM RA BR BKN025
     FM011200 14005KT 4SM -RA BR BKN030 OVC050
     FM011600 VRB04KT P6SM VCSH BKN035=

USA.gov is the U.S. government's official web portal to all federal, state and local government web resources and services.